Honolulu, Hawaii
Current Conditions -  °F | °C
As of 3:53 PM on Friday 21 Nov 2014 (Local Time) from PHNL Reporting Station
Scattered Clouds Scattered Clouds  
Wind Chill: 83°   Ceiling: Unl
Heat Index: 86°   Visibility: 10mi
Dew Point: 69°   Wind: 18mph
Humidity: 63%   Direction: 50°NE
Pressure: 29.96"   Gusts: 25mph
Location:  21.3°N, 157.85°W
Report Text: PHNL 220153Z 05016G22KT 10SM FEW030 SCT065 28/21 A2996 RMK AO2 SLP144 T02830206
Loading
Personal Weather Stations






























Interactive Weather Map New forecast layout! Learn more

10-Day Weather Forecast

Advertisements
Track Severe Weather on mobile